sensor_id;sensor_type;location;lat;lon;timestamp;P1;durP1;ratioP1;P2;durP2;ratioP2
54743;SDS011;40639;53.170;6.728;2023-06-22T00:00:32;15.98;;;12.88;;
54743;SDS011;40639;53.170;6.728;2023-06-22T00:02:59;15.95;;;13.43;;
54743;SDS011;40639;53.170;6.728;2023-06-22T00:05:25;19.55;;;14.88;;
54743;SDS011;40639;53.170;6.728;2023-06-22T00:07:51;20.15;;;15.45;;
54743;SDS011;40639;53.170;6.728;2023-06-22T00:10:17;20.08;;;15.80;;
54743;SDS011;40639;53.170;6.728;2023-06-22T00:12:43;20.52;;;16.30;;
54743;SDS011;40639;53.170;6.728;2023-06-22T00:15:09;21.92;;;16.20;;
54743;SDS011;40639;53.170;6.728;2023-06-22T00:17:35;18.70;;;13.40;;
54743;SDS011;40639;53.170;6.728;2023-06-22T00:20:01;12.45;;;10.35;;
54743;SDS011;40639;53.170;6.728;2023-06-22T00:22:32;9.68;;;7.88;;
54743;SDS011;40639;53.170;6.728;2023-06-22T00:25:03;9.82;;;6.53;;
54743;SDS011;40639;53.170;6.728;2023-06-22T00:27:29;19.23;;;6.72;;
54743;SDS011;40639;53.170;6.728;2023-06-22T00:29:56;66.50;;;10.32;;
54743;SDS011;40639;53.170;6.728;2023-06-22T00:32:22;27.48;;;8.63;;
54743;SDS011;40639;53.170;6.728;2023-06-22T00:34:48;14.95;;;7.80;;
54743;SDS011;40639;53.170;6.728;2023-06-22T00:37:15;9.05;;;8.02;;
54743;SDS011;40639;53.170;6.728;2023-06-22T00:39:42;8.75;;;7.85;;
54743;SDS011;40639;53.170;6.728;2023-06-22T00:42:09;12.10;;;9.13;;
54743;SDS011;40639;53.170;6.728;2023-06-22T00:44:35;13.50;;;11.13;;
54743;SDS011;40639;53.170;6.728;2023-06-22T00:47:02;15.63;;;12.38;;
54743;SDS011;40639;53.170;6.728;2023-06-22T00:49:28;17.38;;;13.93;;
54743;SDS011;40639;53.170;6.728;2023-06-22T00:51:55;16.15;;;13.00;;
54743;SDS011;40639;53.170;6.728;2023-06-22T00:54:21;15.05;;;12.40;;
54743;SDS011;40639;53.170;6.728;2023-06-22T00:56:53;14.95;;;12.07;;
54743;SDS011;40639;53.170;6.728;2023-06-22T00:59:23;13.10;;;11.25;;
54743;SDS011;40639;53.170;6.728;2023-06-22T01:01:49;14.73;;;11.45;;
54743;SDS011;40639;53.170;6.728;2023-06-22T01:04:15;17.38;;;13.98;;
54743;SDS011;40639;53.170;6.728;2023-06-22T01:06:45;19.35;;;14.32;;
54743;SDS011;40639;53.170;6.728;2023-06-22T01:09:18;16.67;;;13.65;;
54743;SDS011;40639;53.170;6.728;2023-06-22T01:11:45;9.63;;;7.55;;
54743;SDS011;40639;53.170;6.728;2023-06-22T01:14:23;10.95;;;8.82;;
54743;SDS011;40639;53.170;6.728;2023-06-22T01:16:50;13.00;;;10.70;;
54743;SDS011;40639;53.170;6.728;2023-06-22T01:21:46;13.27;;;10.95;;
54743;SDS011;40639;53.170;6.728;2023-06-22T01:24:33;14.40;;;12.35;;
54743;SDS011;40639;53.170;6.728;2023-06-22T01:29:38;13.50;;;10.77;;
54743;SDS011;40639;53.170;6.728;2023-06-22T01:32:06;12.68;;;11.38;;
54743;SDS011;40639;53.170;6.728;2023-06-22T01:34:32;12.95;;;11.52;;
54743;SDS011;40639;53.170;6.728;2023-06-22T01:36:59;15.32;;;13.07;;
54743;SDS011;40639;53.170;6.728;2023-06-22T01:39:26;16.63;;;14.05;;
54743;SDS011;40639;53.170;6.728;2023-06-22T01:41:53;15.00;;;12.75;;
54743;SDS011;40639;53.170;6.728;2023-06-22T01:44:19;14.23;;;12.55;;
54743;SDS011;40639;53.170;6.728;2023-06-22T01:46:46;19.27;;;14.73;;
54743;SDS011;40639;53.170;6.728;2023-06-22T01:49:14;15.57;;;13.18;;
54743;SDS011;40639;53.170;6.728;2023-06-22T01:51:40;12.25;;;10.77;;
54743;SDS011;40639;53.170;6.728;2023-06-22T01:54:06;10.77;;;9.20;;
54743;SDS011;40639;53.170;6.728;2023-06-22T01:56:33;10.15;;;9.15;;
54743;SDS011;40639;53.170;6.728;2023-06-22T02:01:28;10.38;;;9.32;;
54743;SDS011;40639;53.170;6.728;2023-06-22T02:04:04;10.32;;;8.60;;
54743;SDS011;40639;53.170;6.728;2023-06-22T02:06:33;14.85;;;9.48;;
54743;SDS011;40639;53.170;6.728;2023-06-22T02:09:02;11.55;;;9.18;;
54743;SDS011;40639;53.170;6.728;2023-06-22T02:11:31;13.73;;;10.60;;
54743;SDS011;40639;53.170;6.728;2023-06-22T02:13:58;79.13;;;15.10;;
54743;SDS011;40639;53.170;6.728;2023-06-22T02:16:25;49.92;;;12.68;;
54743;SDS011;40639;53.170;6.728;2023-06-22T02:18:54;16.27;;;12.40;;
54743;SDS011;40639;53.170;6.728;2023-06-22T02:21:21;37.47;;;14.40;;
54743;SDS011;40639;53.170;6.728;2023-06-22T02:23:48;24.83;;;12.90;;
54743;SDS011;40639;53.170;6.728;2023-06-22T02:26:15;89.63;;;16.33;;
54743;SDS011;40639;53.170;6.728;2023-06-22T02:28:41;31.23;;;12.43;;
54743;SDS011;40639;53.170;6.728;2023-06-22T02:31:08;20.95;;;13.18;;
54743;SDS011;40639;53.170;6.728;2023-06-22T02:33:34;19.48;;;13.32;;
54743;SDS011;40639;53.170;6.728;2023-06-22T02:36:00;16.92;;;12.45;;
54743;SDS011;40639;53.170;6.728;2023-06-22T02:38:30;21.35;;;13.30;;
54743;SDS011;40639;53.170;6.728;2023-06-22T02:40:58;23.08;;;13.93;;
54743;SDS011;40639;53.170;6.728;2023-06-22T02:43:24;62.40;;;16.77;;
54743;SDS011;40639;53.170;6.728;2023-06-22T02:45:50;25.77;;;16.45;;
54743;SDS011;40639;53.170;6.728;2023-06-22T02:48:17;20.40;;;15.15;;
54743;SDS011;40639;53.170;6.728;2023-06-22T02:50:43;47.78;;;16.15;;
54743;SDS011;40639;53.170;6.728;2023-06-22T02:53:09;19.25;;;15.95;;
54743;SDS011;40639;53.170;6.728;2023-06-22T02:55:35;92.50;;;18.80;;
54743;SDS011;40639;53.170;6.728;2023-06-22T02:58:01;51.63;;;17.20;;
54743;SDS011;40639;53.170;6.728;2023-06-22T03:00:30;31.38;;;15.65;;
54743;SDS011;40639;53.170;6.728;2023-06-22T03:02:56;21.98;;;16.15;;
54743;SDS011;40639;53.170;6.728;2023-06-22T03:05:23;29.92;;;16.60;;
54743;SDS011;40639;53.170;6.728;2023-06-22T03:07:49;21.05;;;15.95;;
54743;SDS011;40639;53.170;6.728;2023-06-22T03:10:16;16.42;;;14.40;;
54743;SDS011;40639;53.170;6.728;2023-06-22T03:12:42;19.05;;;15.70;;
54743;SDS011;40639;53.170;6.728;2023-06-22T03:15:09;17.25;;;15.20;;
54743;SDS011;40639;53.170;6.728;2023-06-22T03:17:36;19.08;;;15.18;;
54743;SDS011;40639;53.170;6.728;2023-06-22T03:20:04;16.65;;;14.63;;
54743;SDS011;40639;53.170;6.728;2023-06-22T03:22:40;16.15;;;13.68;;
54743;SDS011;40639;53.170;6.728;2023-06-22T03:25:08;15.40;;;13.45;;
54743;SDS011;40639;53.170;6.728;2023-06-22T03:27:40;15.20;;;12.32;;
54743;SDS011;40639;53.170;6.728;2023-06-22T03:30:07;14.02;;;12.50;;
54743;SDS011;40639;53.170;6.728;2023-06-22T03:32:34;15.32;;;13.77;;
54743;SDS011;40639;53.170;6.728;2023-06-22T03:35:00;17.30;;;14.63;;
54743;SDS011;40639;53.170;6.728;2023-06-22T03:37:27;16.55;;;14.82;;
54743;SDS011;40639;53.170;6.728;2023-06-22T03:39:53;17.30;;;13.75;;
54743;SDS011;40639;53.170;6.728;2023-06-22T03:42:19;18.42;;;15.77;;
54743;SDS011;40639;53.170;6.728;2023-06-22T03:44:45;18.02;;;15.20;;
54743;SDS011;40639;53.170;6.728;2023-06-22T03:47:12;18.08;;;15.60;;
54743;SDS011;40639;53.170;6.728;2023-06-22T03:49:38;17.50;;;14.93;;
54743;SDS011;40639;53.170;6.728;2023-06-22T03:52:04;16.23;;;14.35;;
54743;SDS011;40639;53.170;6.728;2023-06-22T03:54:30;15.07;;;12.93;;
54743;SDS011;40639;53.170;6.728;2023-06-22T03:56:57;12.25;;;11.00;;
54743;SDS011;40639;53.170;6.728;2023-06-22T03:59:23;11.30;;;9.95;;
54743;SDS011;40639;53.170;6.728;2023-06-22T04:01:49;10.93;;;9.88;;
54743;SDS011;40639;53.170;6.728;2023-06-22T04:04:17;10.65;;;9.70;;
54743;SDS011;40639;53.170;6.728;2023-06-22T04:06:43;13.15;;;11.07;;
54743;SDS011;40639;53.170;6.728;2023-06-22T04:09:09;12.30;;;10.60;;
54743;SDS011;40639;53.170;6.728;2023-06-22T04:11:35;12.55;;;11.23;;
54743;SDS011;40639;53.170;6.728;2023-06-22T04:14:01;14.35;;;12.85;;
54743;SDS011;40639;53.170;6.728;2023-06-22T04:16:27;14.35;;;12.85;;
54743;SDS011;40639;53.170;6.728;2023-06-22T04:18:53;13.35;;;11.95;;
54743;SDS011;40639;53.170;6.728;2023-06-22T04:21:19;15.52;;;13.45;;
54743;SDS011;40639;53.170;6.728;2023-06-22T04:23:46;16.67;;;14.88;;
54743;SDS011;40639;53.170;6.728;2023-06-22T04:26:13;18.17;;;15.43;;
54743;SDS011;40639;53.170;6.728;2023-06-22T04:28:39;23.08;;;17.27;;
54743;SDS011;40639;53.170;6.728;2023-06-22T04:31:05;21.35;;;18.27;;
54743;SDS011;40639;53.170;6.728;2023-06-22T04:33:32;21.20;;;17.65;;
54743;SDS011;40639;53.170;6.728;2023-06-22T04:35:58;19.92;;;17.17;;
54743;SDS011;40639;53.170;6.728;2023-06-22T04:38:29;20.05;;;17.48;;
54743;SDS011;40639;53.170;6.728;2023-06-22T04:40:58;21.83;;;18.40;;
54743;SDS011;40639;53.170;6.728;2023-06-22T04:43:26;19.38;;;17.33;;
54743;SDS011;40639;53.170;6.728;2023-06-22T04:45:56;22.30;;;18.95;;
54743;SDS011;40639;53.170;6.728;2023-06-22T04:48:31;21.98;;;18.38;;
54743;SDS011;40639;53.170;6.728;2023-06-22T04:51:01;26.10;;;22.30;;
54743;SDS011;40639;53.170;6.728;2023-06-22T04:53:28;32.05;;;24.10;;
54743;SDS011;40639;53.170;6.728;2023-06-22T04:55:55;32.75;;;23.75;;
54743;SDS011;40639;53.170;6.728;2023-06-22T04:58:21;33.70;;;26.88;;
54743;SDS011;40639;53.170;6.728;2023-06-22T05:00:47;32.70;;;25.50;;
54743;SDS011;40639;53.170;6.728;2023-06-22T05:03:17;37.35;;;25.88;;
54743;SDS011;40639;53.170;6.728;2023-06-22T05:05:43;31.35;;;25.15;;
54743;SDS011;40639;53.170;6.728;2023-06-22T05:08:09;33.72;;;25.65;;
54743;SDS011;40639;53.170;6.728;2023-06-22T05:10:35;34.58;;;26.05;;
54743;SDS011;40639;53.170;6.728;2023-06-22T05:13:02;30.70;;;23.77;;
54743;SDS011;40639;53.170;6.728;2023-06-22T05:15:28;30.77;;;24.00;;
54743;SDS011;40639;53.170;6.728;2023-06-22T05:17:55;32.60;;;25.42;;
54743;SDS011;40639;53.170;6.728;2023-06-22T05:20:23;29.13;;;23.17;;
54743;SDS011;40639;53.170;6.728;2023-06-22T05:22:49;29.60;;;21.50;;
54743;SDS011;40639;53.170;6.728;2023-06-22T05:25:15;28.83;;;22.77;;
54743;SDS011;40639;53.170;6.728;2023-06-22T05:27:41;28.73;;;22.92;;
54743;SDS011;40639;53.170;6.728;2023-06-22T05:30:09;28.23;;;21.63;;
54743;SDS011;40639;53.170;6.728;2023-06-22T05:32:36;28.67;;;21.70;;
54743;SDS011;40639;53.170;6.728;2023-06-22T05:35:03;28.00;;;21.17;;
54743;SDS011;40639;53.170;6.728;2023-06-22T05:37:29;27.67;;;21.35;;
54743;SDS011;40639;53.170;6.728;2023-06-22T05:39:55;28.88;;;20.98;;
54743;SDS011;40639;53.170;6.728;2023-06-22T05:42:22;27.27;;;20.85;;
54743;SDS011;40639;53.170;6.728;2023-06-22T05:44:50;35.35;;;21.83;;
54743;SDS011;40639;53.170;6.728;2023-06-22T05:47:16;30.67;;;19.85;;
54743;SDS011;40639;53.170;6.728;2023-06-22T05:49:43;25.63;;;19.58;;
54743;SDS011;40639;53.170;6.728;2023-06-22T05:52:09;23.92;;;18.15;;
54743;SDS011;40639;53.170;6.728;2023-06-22T05:54:35;24.00;;;18.95;;
54743;SDS011;40639;53.170;6.728;2023-06-22T05:57:01;23.80;;;18.33;;
54743;SDS011;40639;53.170;6.728;2023-06-22T05:59:27;24.52;;;19.52;;
54743;SDS011;40639;53.170;6.728;2023-06-22T06:01:53;25.27;;;18.27;;
54743;SDS011;40639;53.170;6.728;2023-06-22T06:04:19;24.63;;;18.73;;
54743;SDS011;40639;53.170;6.728;2023-06-22T06:06:45;25.38;;;18.52;;
54743;SDS011;40639;53.170;6.728;2023-06-22T06:09:14;20.60;;;17.35;;
54743;SDS011;40639;53.170;6.728;2023-06-22T06:11:40;25.45;;;18.63;;
54743;SDS011;40639;53.170;6.728;2023-06-22T06:14:07;25.33;;;17.83;;
54743;SDS011;40639;53.170;6.728;2023-06-22T06:16:33;20.08;;;15.98;;
54743;SDS011;40639;53.170;6.728;2023-06-22T06:18:59;18.58;;;15.18;;
54743;SDS011;40639;53.170;6.728;2023-06-22T06:21:25;17.15;;;14.65;;
54743;SDS011;40639;53.170;6.728;2023-06-22T06:23:52;19.42;;;14.88;;
54743;SDS011;40639;53.170;6.728;2023-06-22T06:26:18;18.08;;;13.68;;
54743;SDS011;40639;53.170;6.728;2023-06-22T06:28:52;17.52;;;12.70;;
54743;SDS011;40639;53.170;6.728;2023-06-22T06:31:19;14.73;;;11.70;;
54743;SDS011;40639;53.170;6.728;2023-06-22T06:33:45;17.10;;;13.30;;
54743;SDS011;40639;53.170;6.728;2023-06-22T06:36:12;14.52;;;10.77;;
54743;SDS011;40639;53.170;6.728;2023-06-22T06:38:38;14.65;;;11.68;;
54743;SDS011;40639;53.170;6.728;2023-06-22T06:41:04;19.42;;;11.85;;
54743;SDS011;40639;53.170;6.728;2023-06-22T06:43:30;25.48;;;12.68;;
54743;SDS011;40639;53.170;6.728;2023-06-22T06:45:56;15.18;;;11.02;;
54743;SDS011;40639;53.170;6.728;2023-06-22T06:48:22;21.67;;;11.45;;
54743;SDS011;40639;53.170;6.728;2023-06-22T06:50:48;63.70;;;15.95;;
54743;SDS011;40639;53.170;6.728;2023-06-22T06:53:15;28.45;;;12.60;;
54743;SDS011;40639;53.170;6.728;2023-06-22T06:55:41;45.20;;;12.57;;
54743;SDS011;40639;53.170;6.728;2023-06-22T06:58:08;19.90;;;12.23;;
54743;SDS011;40639;53.170;6.728;2023-06-22T07:00:37;15.45;;;11.05;;
54743;SDS011;40639;53.170;6.728;2023-06-22T07:03:04;24.10;;;11.13;;
54743;SDS011;40639;53.170;6.728;2023-06-22T07:05:32;24.23;;;10.85;;
54743;SDS011;40639;53.170;6.728;2023-06-22T07:07:58;19.27;;;9.25;;
54743;SDS011;40639;53.170;6.728;2023-06-22T07:10:24;18.88;;;9.52;;
54743;SDS011;40639;53.170;6.728;2023-06-22T07:12:50;38.38;;;12.15;;
54743;SDS011;40639;53.170;6.728;2023-06-22T07:15:16;24.67;;;10.30;;
54743;SDS011;40639;53.170;6.728;2023-06-22T07:17:43;12.73;;;9.85;;
54743;SDS011;40639;53.170;6.728;2023-06-22T07:20:09;12.63;;;8.32;;
54743;SDS011;40639;53.170;6.728;2023-06-22T07:22:40;11.25;;;7.60;;
54743;SDS011;40639;53.170;6.728;2023-06-22T07:25:06;19.75;;;8.07;;
54743;SDS011;40639;53.170;6.728;2023-06-22T07:27:39;10.27;;;7.28;;
54743;SDS011;40639;53.170;6.728;2023-06-22T07:30:08;10.43;;;7.80;;
54743;SDS011;40639;53.170;6.728;2023-06-22T07:32:34;11.65;;;7.00;;
54743;SDS011;40639;53.170;6.728;2023-06-22T07:35:01;9.70;;;7.70;;
54743;SDS011;40639;53.170;6.728;2023-06-22T07:37:27;10.90;;;8.20;;
54743;SDS011;40639;53.170;6.728;2023-06-22T07:39:54;28.52;;;9.52;;
54743;SDS011;40639;53.170;6.728;2023-06-22T07:42:24;26.90;;;10.07;;
54743;SDS011;40639;53.170;6.728;2023-06-22T07:44:50;13.05;;;9.75;;
54743;SDS011;40639;53.170;6.728;2023-06-22T07:47:17;10.65;;;8.55;;
54743;SDS011;40639;53.170;6.728;2023-06-22T07:49:44;10.27;;;7.35;;
54743;SDS011;40639;53.170;6.728;2023-06-22T07:52:10;9.20;;;7.25;;
54743;SDS011;40639;53.170;6.728;2023-06-22T07:54:37;9.57;;;7.70;;
54743;SDS011;40639;53.170;6.728;2023-06-22T07:57:05;12.65;;;9.65;;
54743;SDS011;40639;53.170;6.728;2023-06-22T07:59:31;12.55;;;10.27;;
54743;SDS011;40639;53.170;6.728;2023-06-22T08:01:57;12.00;;;9.43;;
54743;SDS011;40639;53.170;6.728;2023-06-22T08:04:23;10.32;;;7.95;;
54743;SDS011;40639;53.170;6.728;2023-06-22T08:06:49;10.80;;;7.50;;
54743;SDS011;40639;53.170;6.728;2023-06-22T08:09:15;11.63;;;8.80;;
54743;SDS011;40639;53.170;6.728;2023-06-22T08:11:41;10.35;;;7.88;;
54743;SDS011;40639;53.170;6.728;2023-06-22T08:14:08;10.00;;;7.53;;
54743;SDS011;40639;53.170;6.728;2023-06-22T08:16:34;11.23;;;7.60;;
54743;SDS011;40639;53.170;6.728;2023-06-22T08:19:00;12.57;;;6.97;;
54743;SDS011;40639;53.170;6.728;2023-06-22T08:21:26;9.82;;;5.53;;
54743;SDS011;40639;53.170;6.728;2023-06-22T08:23:53;11.63;;;6.85;;
54743;SDS011;40639;53.170;6.728;2023-06-22T08:26:19;19.52;;;8.07;;
54743;SDS011;40639;53.170;6.728;2023-06-22T08:28:45;10.93;;;7.32;;
54743;SDS011;40639;53.170;6.728;2023-06-22T08:31:12;11.75;;;6.80;;
54743;SDS011;40639;53.170;6.728;2023-06-22T08:33:39;13.02;;;6.30;;
54743;SDS011;40639;53.170;6.728;2023-06-22T08:36:05;10.52;;;6.15;;
54743;SDS011;40639;53.170;6.728;2023-06-22T08:38:33;9.95;;;6.82;;
54743;SDS011;40639;53.170;6.728;2023-06-22T08:40:59;7.65;;;5.85;;
54743;SDS011;40639;53.170;6.728;2023-06-22T08:43:26;7.07;;;4.65;;
54743;SDS011;40639;53.170;6.728;2023-06-22T08:45:52;8.65;;;5.28;;
54743;SDS011;40639;53.170;6.728;2023-06-22T08:48:18;9.18;;;5.15;;
54743;SDS011;40639;53.170;6.728;2023-06-22T08:50:44;7.20;;;4.70;;
54743;SDS011;40639;53.170;6.728;2023-06-22T08:53:10;8.48;;;5.38;;
54743;SDS011;40639;53.170;6.728;2023-06-22T08:55:36;6.95;;;5.20;;
54743;SDS011;40639;53.170;6.728;2023-06-22T08:58:02;7.78;;;5.15;;
54743;SDS011;40639;53.170;6.728;2023-06-22T09:00:28;10.60;;;4.63;;
54743;SDS011;40639;53.170;6.728;2023-06-22T09:02:57;8.38;;;5.18;;
54743;SDS011;40639;53.170;6.728;2023-06-22T09:05:24;12.98;;;5.38;;
54743;SDS011;40639;53.170;6.728;2023-06-22T09:07:53;12.43;;;5.43;;
54743;SDS011;40639;53.170;6.728;2023-06-22T09:10:24;20.30;;;5.50;;
54743;SDS011;40639;53.170;6.728;2023-06-22T09:12:50;7.85;;;4.93;;
54743;SDS011;40639;53.170;6.728;2023-06-22T09:15:16;24.35;;;6.40;;
54743;SDS011;40639;53.170;6.728;2023-06-22T09:17:42;6.25;;;4.28;;
54743;SDS011;40639;53.170;6.728;2023-06-22T09:20:09;7.20;;;4.60;;
54743;SDS011;40639;53.170;6.728;2023-06-22T09:22:36;7.15;;;4.57;;
54743;SDS011;40639;53.170;6.728;2023-06-22T09:25:02;7.70;;;4.60;;
54743;SDS011;40639;53.170;6.728;2023-06-22T09:27:28;8.30;;;4.60;;
54743;SDS011;40639;53.170;6.728;2023-06-22T09:29:55;6.57;;;4.22;;
54743;SDS011;40639;53.170;6.728;2023-06-22T09:32:23;6.95;;;5.05;;
54743;SDS011;40639;53.170;6.728;2023-06-22T09:34:49;7.15;;;4.60;;
54743;SDS011;40639;53.170;6.728;2023-06-22T09:37:16;9.07;;;5.63;;
54743;SDS011;40639;53.170;6.728;2023-06-22T09:39:42;8.07;;;6.03;;
54743;SDS011;40639;53.170;6.728;2023-06-22T09:42:08;7.88;;;6.00;;
54743;SDS011;40639;53.170;6.728;2023-06-22T09:44:34;8.32;;;5.70;;
54743;SDS011;40639;53.170;6.728;2023-06-22T09:47:00;7.88;;;5.72;;
54743;SDS011;40639;53.170;6.728;2023-06-22T09:49:26;10.02;;;7.03;;
54743;SDS011;40639;53.170;6.728;2023-06-22T09:51:53;9.05;;;5.85;;
54743;SDS011;40639;53.170;6.728;2023-06-22T09:54:19;13.70;;;6.50;;
54743;SDS011;40639;53.170;6.728;2023-06-22T09:56:45;7.25;;;5.70;;
54743;SDS011;40639;53.170;6.728;2023-06-22T09:59:11;8.50;;;6.28;;
54743;SDS011;40639;53.170;6.728;2023-06-22T10:01:37;6.40;;;4.93;;
54743;SDS011;40639;53.170;6.728;2023-06-22T10:04:03;7.72;;;5.25;;
54743;SDS011;40639;53.170;6.728;2023-06-22T10:06:29;7.18;;;5.35;;
54743;SDS011;40639;53.170;6.728;2023-06-22T10:08:55;10.90;;;4.95;;
54743;SDS011;40639;53.170;6.728;2023-06-22T10:11:22;7.53;;;5.68;;
54743;SDS011;40639;53.170;6.728;2023-06-22T10:13:54;7.93;;;5.68;;
54743;SDS011;40639;53.170;6.728;2023-06-22T10:16:20;7.15;;;5.55;;
54743;SDS011;40639;53.170;6.728;2023-06-22T10:18:46;8.90;;;5.70;;
54743;SDS011;40639;53.170;6.728;2023-06-22T10:21:12;10.38;;;6.40;;
54743;SDS011;40639;53.170;6.728;2023-06-22T10:23:38;8.77;;;5.78;;
54743;SDS011;40639;53.170;6.728;2023-06-22T10:26:04;13.40;;;5.97;;
54743;SDS011;40639;53.170;6.728;2023-06-22T10:28:31;8.23;;;6.00;;
54743;SDS011;40639;53.170;6.728;2023-06-22T10:30:57;7.70;;;5.80;;
54743;SDS011;40639;53.170;6.728;2023-06-22T10:33:23;9.73;;;6.43;;
54743;SDS011;40639;53.170;6.728;2023-06-22T10:35:49;11.95;;;5.93;;
54743;SDS011;40639;53.170;6.728;2023-06-22T10:38:15;10.43;;;6.45;;
54743;SDS011;40639;53.170;6.728;2023-06-22T10:40:41;8.25;;;6.47;;
54743;SDS011;40639;53.170;6.728;2023-06-22T10:43:07;10.25;;;6.93;;
54743;SDS011;40639;53.170;6.728;2023-06-22T10:45:33;8.07;;;6.15;;
54743;SDS011;40639;53.170;6.728;2023-06-22T10:48:00;8.57;;;5.75;;
54743;SDS011;40639;53.170;6.728;2023-06-22T10:50:26;8.90;;;6.72;;
54743;SDS011;40639;53.170;6.728;2023-06-22T10:52:52;9.32;;;6.70;;
54743;SDS011;40639;53.170;6.728;2023-06-22T10:55:18;8.52;;;7.43;;
54743;SDS011;40639;53.170;6.728;2023-06-22T10:57:44;10.00;;;6.13;;
54743;SDS011;40639;53.170;6.728;2023-06-22T11:00:12;10.93;;;6.68;;
54743;SDS011;40639;53.170;6.728;2023-06-22T11:02:38;9.38;;;6.10;;
54743;SDS011;40639;53.170;6.728;2023-06-22T11:05:05;8.18;;;6.38;;
54743;SDS011;40639;53.170;6.728;2023-06-22T11:07:31;8.52;;;6.43;;
54743;SDS011;40639;53.170;6.728;2023-06-22T11:09:57;9.40;;;6.10;;
54743;SDS011;40639;53.170;6.728;2023-06-22T11:12:24;8.95;;;5.57;;
54743;SDS011;40639;53.170;6.728;2023-06-22T11:14:50;7.57;;;5.03;;
54743;SDS011;40639;53.170;6.728;2023-06-22T11:17:17;7.53;;;6.10;;
54743;SDS011;40639;53.170;6.728;2023-06-22T11:19:43;8.60;;;6.30;;
54743;SDS011;40639;53.170;6.728;2023-06-22T11:22:10;7.15;;;5.85;;
54743;SDS011;40639;53.170;6.728;2023-06-22T11:24:36;9.20;;;7.30;;
54743;SDS011;40639;53.170;6.728;2023-06-22T11:27:02;7.68;;;5.90;;
54743;SDS011;40639;53.170;6.728;2023-06-22T11:29:28;8.88;;;5.70;;
54743;SDS011;40639;53.170;6.728;2023-06-22T11:31:55;9.80;;;5.70;;
54743;SDS011;40639;53.170;6.728;2023-06-22T11:34:21;10.27;;;6.28;;
54743;SDS011;40639;53.170;6.728;2023-06-22T11:36:47;7.65;;;6.00;;
54743;SDS011;40639;53.170;6.728;2023-06-22T11:39:13;7.50;;;4.95;;
54743;SDS011;40639;53.170;6.728;2023-06-22T11:41:40;9.25;;;5.40;;
54743;SDS011;40639;53.170;6.728;2023-06-22T11:44:07;8.57;;;5.10;;
54743;SDS011;40639;53.170;6.728;2023-06-22T11:46:33;7.72;;;5.03;;
54743;SDS011;40639;53.170;6.728;2023-06-22T11:49:00;6.30;;;5.10;;
54743;SDS011;40639;53.170;6.728;2023-06-22T11:51:26;7.50;;;4.82;;
54743;SDS011;40639;53.170;6.728;2023-06-22T11:53:53;7.15;;;5.30;;
54743;SDS011;40639;53.170;6.728;2023-06-22T11:56:19;6.70;;;5.07;;
54743;SDS011;40639;53.170;6.728;2023-06-22T11:58:45;7.95;;;4.97;;
54743;SDS011;40639;53.170;6.728;2023-06-22T12:01:11;6.60;;;4.70;;
54743;SDS011;40639;53.170;6.728;2023-06-22T12:03:40;6.10;;;4.20;;
54743;SDS011;40639;53.170;6.728;2023-06-22T12:06:06;5.35;;;4.28;;
54743;SDS011;40639;53.170;6.728;2023-06-22T12:08:32;6.75;;;4.60;;
54743;SDS011;40639;53.170;6.728;2023-06-22T12:10:58;6.35;;;4.85;;
54743;SDS011;40639;53.170;6.728;2023-06-22T12:13:24;6.40;;;4.68;;
54743;SDS011;40639;53.170;6.728;2023-06-22T12:15:50;7.78;;;4.70;;
54743;SDS011;40639;53.170;6.728;2023-06-22T12:18:17;8.05;;;5.07;;
54743;SDS011;40639;53.170;6.728;2023-06-22T12:20:45;7.45;;;5.13;;
54743;SDS011;40639;53.170;6.728;2023-06-22T12:23:12;7.43;;;4.75;;
54743;SDS011;40639;53.170;6.728;2023-06-22T12:25:38;15.95;;;4.60;;
54743;SDS011;40639;53.170;6.728;2023-06-22T12:28:05;7.32;;;4.88;;
54743;SDS011;40639;53.170;6.728;2023-06-22T12:30:32;8.73;;;4.95;;
54743;SDS011;40639;53.170;6.728;2023-06-22T12:32:58;8.07;;;4.90;;
54743;SDS011;40639;53.170;6.728;2023-06-22T12:35:24;7.88;;;4.75;;
54743;SDS011;40639;53.170;6.728;2023-06-22T12:37:50;6.60;;;5.00;;
54743;SDS011;40639;53.170;6.728;2023-06-22T12:40:17;8.93;;;5.95;;
54743;SDS011;40639;53.170;6.728;2023-06-22T12:42:44;8.85;;;6.10;;
54743;SDS011;40639;53.170;6.728;2023-06-22T12:45:11;6.80;;;5.70;;
54743;SDS011;40639;53.170;6.728;2023-06-22T12:47:37;7.82;;;5.80;;
54743;SDS011;40639;53.170;6.728;2023-06-22T12:50:03;8.70;;;6.38;;
54743;SDS011;40639;53.170;6.728;2023-06-22T12:52:30;10.02;;;5.80;;
54743;SDS011;40639;53.170;6.728;2023-06-22T12:54:57;8.80;;;5.53;;
54743;SDS011;40639;53.170;6.728;2023-06-22T12:57:23;8.85;;;5.40;;
54743;SDS011;40639;53.170;6.728;2023-06-22T12:59:50;9.57;;;5.70;;
54743;SDS011;40639;53.170;6.728;2023-06-22T13:02:16;7.97;;;5.53;;
54743;SDS011;40639;53.170;6.728;2023-06-22T13:04:42;7.28;;;5.13;;
54743;SDS011;40639;53.170;6.728;2023-06-22T13:07:09;7.97;;;5.75;;
54743;SDS011;40639;53.170;6.728;2023-06-22T13:09:36;7.43;;;4.80;;
54743;SDS011;40639;53.170;6.728;2023-06-22T13:12:02;6.22;;;4.93;;
54743;SDS011;40639;53.170;6.728;2023-06-22T13:14:28;8.60;;;5.07;;
54743;SDS011;40639;53.170;6.728;2023-06-22T13:16:54;7.70;;;5.47;;
54743;SDS011;40639;53.170;6.728;2023-06-22T13:19:20;9.70;;;6.28;;
54743;SDS011;40639;53.170;6.728;2023-06-22T13:21:47;8.02;;;5.35;;
54743;SDS011;40639;53.170;6.728;2023-06-22T13:24:13;6.88;;;5.53;;
54743;SDS011;40639;53.170;6.728;2023-06-22T13:26:39;8.25;;;5.40;;
54743;SDS011;40639;53.170;6.728;2023-06-22T13:29:05;7.00;;;4.70;;
54743;SDS011;40639;53.170;6.728;2023-06-22T13:31:31;5.88;;;4.97;;
54743;SDS011;40639;53.170;6.728;2023-06-22T13:33:57;7.10;;;5.20;;
54743;SDS011;40639;53.170;6.728;2023-06-22T13:36:24;8.55;;;4.22;;
54743;SDS011;40639;53.170;6.728;2023-06-22T13:38:50;7.82;;;4.85;;
54743;SDS011;40639;53.170;6.728;2023-06-22T13:41:16;5.88;;;4.40;;
54743;SDS011;40639;53.170;6.728;2023-06-22T13:43:42;6.50;;;4.18;;
54743;SDS011;40639;53.170;6.728;2023-06-22T13:46:08;5.88;;;4.35;;
54743;SDS011;40639;53.170;6.728;2023-06-22T13:48:34;9.40;;;5.03;;
54743;SDS011;40639;53.170;6.728;2023-06-22T13:51:00;5.57;;;3.90;;
54743;SDS011;40639;53.170;6.728;2023-06-22T13:53:26;7.47;;;3.80;;
54743;SDS011;40639;53.170;6.728;2023-06-22T13:55:53;7.18;;;3.60;;
54743;SDS011;40639;53.170;6.728;2023-06-22T13:58:19;5.00;;;3.70;;
54743;SDS011;40639;53.170;6.728;2023-06-22T14:00:45;6.07;;;3.92;;
54743;SDS011;40639;53.170;6.728;2023-06-22T14:03:11;9.13;;;4.57;;
54743;SDS011;40639;53.170;6.728;2023-06-22T14:05:40;5.68;;;4.28;;
54743;SDS011;40639;53.170;6.728;2023-06-22T14:08:07;7.28;;;3.67;;
54743;SDS011;40639;53.170;6.728;2023-06-22T14:10:34;4.30;;;3.47;;
54743;SDS011;40639;53.170;6.728;2023-06-22T14:13:00;7.15;;;3.65;;
54743;SDS011;40639;53.170;6.728;2023-06-22T14:15:26;5.35;;;3.40;;
54743;SDS011;40639;53.170;6.728;2023-06-22T14:17:52;5.88;;;3.30;;
54743;SDS011;40639;53.170;6.728;2023-06-22T14:20:18;4.47;;;3.00;;
54743;SDS011;40639;53.170;6.728;2023-06-22T14:22:44;5.35;;;3.33;;
54743;SDS011;40639;53.170;6.728;2023-06-22T14:25:10;4.68;;;3.33;;
54743;SDS011;40639;53.170;6.728;2023-06-22T14:27:36;5.60;;;3.00;;
54743;SDS011;40639;53.170;6.728;2023-06-22T14:30:03;5.28;;;3.20;;
54743;SDS011;40639;53.170;6.728;2023-06-22T14:32:29;6.50;;;3.08;;
54743;SDS011;40639;53.170;6.728;2023-06-22T14:34:55;4.88;;;3.33;;
54743;SDS011;40639;53.170;6.728;2023-06-22T14:37:21;5.35;;;2.88;;